Punta de Agua, Argentina
Current Conditions -  °F | °C
As of 3:00 AM on Saturday 20 Dec 2014 (Local Time) from SCAT Reporting Station
NA  
Wind Chill: 59°   Ceiling: NA
Heat Index: 59°   Visibility: 6mi
Dew Point: 52°   Wind: 5mph
Humidity: 77%   Direction: 180°S
Pressure: 30"   Gusts: NA
Location:  28.6°S, 68.65°W
Report Text: SCAT 200600Z AUTO 18004KT 150V210 9999 // ///023 15/11 Q1016
Loading
Personal Weather Stations






























Interactive Weather Map New forecast layout! Learn more

10-Day Weather Forecast

Advertisements
Track Severe Weather on mobile